createdAt,value
2023-01-13T00:02:47.502Z,8.60
2023-01-13T00:07:09.865Z,8.60
2023-01-13T00:11:32.264Z,8.70
2023-01-13T00:16:18.544Z,8.80
2023-01-13T00:20:40.785Z,8.80
2023-01-13T00:25:04.800Z,8.80
2023-01-13T00:29:26.997Z,8.80
2023-01-13T00:33:49.821Z,8.80
2023-01-13T00:38:11.943Z,8.90
2023-01-13T00:42:53.103Z,8.90
2023-01-13T00:47:15.245Z,8.90
2023-01-13T00:51:37.864Z,9.00
2023-01-13T00:56:01.994Z,9.00
2023-01-13T01:00:24.573Z,9.10
2023-01-13T01:04:46.933Z,9.00
2023-01-13T01:09:13.278Z,9.10
2023-01-13T01:13:37.019Z,9.00
2023-01-13T01:17:59.378Z,9.00
2023-01-13T01:22:21.731Z,8.90
2023-01-13T01:26:44.072Z,8.80
2023-01-13T01:31:13.964Z,8.80
2023-01-13T01:35:40.823Z,8.70
2023-01-13T01:40:03.440Z,8.70
2023-01-13T01:44:44.163Z,8.70
2023-01-13T01:49:26.601Z,8.80
2023-01-13T01:53:49.180Z,8.70
2023-01-13T01:58:21.683Z,8.80
2023-01-13T02:02:48.580Z,8.80
2023-01-13T02:07:10.982Z,8.80
2023-01-13T02:11:55.360Z,8.70
2023-01-13T02:16:25.086Z,8.80
2023-01-13T02:21:22.448Z,8.70
2023-01-13T02:26:18.198Z,8.70
2023-01-13T02:31:11.227Z,8.80
2023-01-13T02:36:12.081Z,8.80
2023-01-13T02:41:21.419Z,8.80
2023-01-13T02:46:28.425Z,8.80
2023-01-13T02:51:06.863Z,8.80
2023-01-13T02:55:47.382Z,8.90
2023-01-13T03:00:13.219Z,8.90
2023-01-13T03:04:53.945Z,8.90
2023-01-13T03:09:21.969Z,8.90
2023-01-13T03:13:54.521Z,8.90
2023-01-13T03:18:49.690Z,8.90
2023-01-13T03:23:37.569Z,8.90
2023-01-13T03:28:13.088Z,8.90
2023-01-13T03:32:40.969Z,8.90
2023-01-13T03:37:06.389Z,8.90
2023-01-13T03:41:44.758Z,8.90
2023-01-13T03:46:20.069Z,8.90
2023-01-13T03:50:56.589Z,8.90
2023-01-13T03:55:25.710Z,8.90
2023-01-13T03:59:54.868Z,8.90
2023-01-13T04:04:33.794Z,8.90
2023-01-13T04:09:29.834Z,9.00
2023-01-13T04:13:54.076Z,8.90
2023-01-13T04:18:24.155Z,8.90
2023-01-13T04:22:46.436Z,8.90
2023-01-13T04:27:08.466Z,9.00
2023-01-13T04:31:30.629Z,8.90
2023-01-13T04:35:53.121Z,8.90
2023-01-13T04:40:15.413Z,8.90
2023-01-13T04:44:37.522Z,8.90
2023-01-13T04:48:59.383Z,8.90
2023-01-13T04:53:21.508Z,8.90
2023-01-13T04:57:43.942Z,8.90
2023-01-13T05:02:08.765Z,8.90
2023-01-13T05:06:30.942Z,8.80
2023-01-13T05:10:53.003Z,8.80
2023-01-13T05:15:35.183Z,8.70
2023-01-13T05:19:57.083Z,8.70
2023-01-13T05:24:37.926Z,8.50
2023-01-13T05:29:00.033Z,8.50
2023-01-13T05:33:22.100Z,8.60
2023-01-13T05:37:46.009Z,8.70
2023-01-13T05:42:27.492Z,8.70
2023-01-13T05:46:50.072Z,8.70
2023-01-13T05:51:13.638Z,8.70
2023-01-13T05:55:35.964Z,8.70
2023-01-13T05:59:58.022Z,8.80
2023-01-13T06:04:20.196Z,8.90
2023-01-13T06:08:42.234Z,9.00
2023-01-13T06:13:05.403Z,9.00
2023-01-13T06:17:27.282Z,8.90
2023-01-13T06:21:49.264Z,8.90
2023-01-13T06:26:23.404Z,8.90
2023-01-13T06:31:02.245Z,8.80
2023-01-13T06:35:29.716Z,8.80
2023-01-13T06:39:57.166Z,8.90
2023-01-13T06:44:21.003Z,8.90
2023-01-13T06:48:42.825Z,8.90
2023-01-13T06:53:04.903Z,8.90
2023-01-13T06:57:27.309Z,8.90
2023-01-13T07:01:49.864Z,8.90
2023-01-13T07:06:12.118Z,8.90
2023-01-13T07:10:35.472Z,8.90
2023-01-13T07:15:16.644Z,8.90
2023-01-13T07:19:38.645Z,8.90
2023-01-13T07:24:00.923Z,9.00
2023-01-13T07:28:24.023Z,9.10
2023-01-13T07:32:46.464Z,9.10
2023-01-13T07:37:08.606Z,9.20
2023-01-13T07:41:49.443Z,9.20
2023-01-13T07:46:11.798Z,9.30
2023-01-13T07:50:34.144Z,9.30
2023-01-13T07:54:56.164Z,9.30
2023-01-13T07:59:18.105Z,9.30
2023-01-13T08:03:41.156Z,9.40
2023-01-13T08:08:03.082Z,9.30
2023-01-13T08:12:51.930Z,9.30
2023-01-13T08:17:20.477Z,9.30
2023-01-13T08:21:42.466Z,9.40
2023-01-13T08:26:09.255Z,9.40
2023-01-13T08:30:31.666Z,9.30
2023-01-13T08:34:54.025Z,9.30
2023-01-13T08:39:16.699Z,9.30
2023-01-13T08:43:39.250Z,9.30
2023-01-13T08:48:01.250Z,9.40
2023-01-13T08:52:25.405Z,9.40
2023-01-13T08:56:47.878Z,9.10
2023-01-13T09:01:15.637Z,8.30
2023-01-13T09:05:37.966Z,7.80
2023-01-13T09:10:00.143Z,7.50
2023-01-13T09:14:25.859Z,7.20
2023-01-13T09:18:48.330Z,7.20
2023-01-13T09:23:11.534Z,7.20
2023-01-13T09:27:33.664Z,7.20
2023-01-13T09:31:58.220Z,7.20
2023-01-13T09:36:20.972Z,7.20
2023-01-13T09:40:44.265Z,7.10
2023-01-13T09:45:15.238Z,7.00
2023-01-13T09:49:42.024Z,7.00
2023-01-13T09:54:32.355Z,7.10
2023-01-13T09:58:54.683Z,7.20
2023-01-13T10:03:25.670Z,7.40
2023-01-13T10:07:57.425Z,7.30
2023-01-13T10:12:45.892Z,7.10
2023-01-13T10:17:56.522Z,7.00
2023-01-13T10:22:37.374Z,7.00
2023-01-13T10:27:32.885Z,7.20
2023-01-13T10:31:57.821Z,7.40
2023-01-13T10:36:21.767Z,8.00
2023-01-13T10:41:16.483Z,8.60
2023-01-13T10:45:38.913Z,8.30
2023-01-13T10:50:16.439Z,7.80
2023-01-13T10:54:53.523Z,7.60
2023-01-13T10:59:19.872Z,7.60
2023-01-13T11:03:44.626Z,7.70
2023-01-13T11:08:18.421Z,7.80
2023-01-13T11:13:10.572Z,7.90
2023-01-13T11:17:46.593Z,8.00
2023-01-13T11:22:20.924Z,8.00
2023-01-13T11:26:55.858Z,7.90
2023-01-13T11:31:39.034Z,7.80
2023-01-13T11:36:13.248Z,7.70
2023-01-13T11:40:41.680Z,7.70
2023-01-13T11:45:29.103Z,7.90
2023-01-13T11:49:51.243Z,8.00
2023-01-13T11:54:34.464Z,9.30
2023-01-13T11:59:15.413Z,10.40
2023-01-13T12:04:18.680Z,12.20
2023-01-13T12:09:19.466Z,11.90
2023-01-13T12:14:15.828Z,10.60
2023-01-13T12:18:55.960Z,9.50
2023-01-13T12:24:05.718Z,8.70
2023-01-13T12:28:43.143Z,8.30
2023-01-13T12:33:25.319Z,8.40
2023-01-13T12:38:08.506Z,8.70
2023-01-13T12:43:13.470Z,8.80
2023-01-13T12:47:45.678Z,9.00
2023-01-13T12:52:08.100Z,9.00
2023-01-13T12:56:40.411Z,8.70
2023-01-13T13:01:14.364Z,8.50
2023-01-13T13:06:08.042Z,8.40
2023-01-13T13:10:39.140Z,8.50
2023-01-13T13:15:04.140Z,8.90
2023-01-13T13:19:26.327Z,9.00
2023-01-13T13:23:58.460Z,8.60
2023-01-13T13:28:23.593Z,8.40
2023-01-13T13:33:48.275Z,8.20
2023-01-13T13:38:55.869Z,8.00
2023-01-13T13:43:39.004Z,7.90
2023-01-13T13:48:28.370Z,7.80
2023-01-13T13:53:05.951Z,7.80
2023-01-13T13:57:39.697Z,7.70
2023-01-13T14:02:04.158Z,7.70
2023-01-13T14:06:26.553Z,7.70
2023-01-13T14:10:48.837Z,7.70
2023-01-13T14:15:32.410Z,7.70
2023-01-13T14:20:13.383Z,7.60
2023-01-13T14:24:47.787Z,7.40
2023-01-13T14:29:18.433Z,7.30
2023-01-13T14:33:53.841Z,7.30
2023-01-13T14:38:16.778Z,7.30
2023-01-13T14:42:42.238Z,7.30
2023-01-13T14:47:24.859Z,7.30
2023-01-13T14:51:46.837Z,7.40
2023-01-13T14:57:05.565Z,7.50
2023-01-13T15:01:39.673Z,7.50
2023-01-13T15:06:02.090Z,7.30
2023-01-13T15:10:38.793Z,7.10
2023-01-13T15:15:01.206Z,7.00
2023-01-13T15:19:23.362Z,6.90
2023-01-13T15:23:47.376Z,6.90
2023-01-13T15:28:19.122Z,6.90
2023-01-13T15:32:41.377Z,7.00
2023-01-13T15:37:03.529Z,6.90
2023-01-13T15:41:45.606Z,6.70
2023-01-13T15:46:38.713Z,6.60
2023-01-13T15:51:01.190Z,6.40
2023-01-13T15:55:24.499Z,6.40
2023-01-13T15:59:46.438Z,6.30
2023-01-13T16:04:10.183Z,6.40
2023-01-13T16:08:34.420Z,6.40
2023-01-13T16:12:56.511Z,6.30
2023-01-13T16:17:22.894Z,6.20
2023-01-13T16:21:45.564Z,6.00
2023-01-13T16:26:25.020Z,5.80
2023-01-13T16:30:47.933Z,5.70
2023-01-13T16:35:10.856Z,5.60
2023-01-13T16:39:33.551Z,5.40
2023-01-13T16:43:55.681Z,5.30
2023-01-13T16:48:22.902Z,5.20
2023-01-13T16:52:45.431Z,5.20
2023-01-13T16:57:08.031Z,5.00
2023-01-13T17:01:33.314Z,5.00
2023-01-13T17:05:55.503Z,5.00
2023-01-13T17:10:24.858Z,5.20
2023-01-13T17:14:47.091Z,5.30
2023-01-13T17:19:10.560Z,5.40
2023-01-13T17:23:33.596Z,5.50
2023-01-13T17:27:56.480Z,5.50
2023-01-13T17:32:20.234Z,5.50
2023-01-13T17:36:45.249Z,5.50
2023-01-13T17:41:07.561Z,5.60
2023-01-13T17:45:29.463Z,5.60
2023-01-13T17:49:51.476Z,5.70
2023-01-13T17:54:14.318Z,5.80
2023-01-13T17:58:38.140Z,5.70
2023-01-13T18:03:00.325Z,5.90
2023-01-13T18:07:22.454Z,6.00
2023-01-13T18:11:46.502Z,6.10
2023-01-13T18:16:13.345Z,6.10
2023-01-13T18:20:54.251Z,6.10
2023-01-13T18:25:34.972Z,6.10
2023-01-13T18:29:59.624Z,6.10
2023-01-13T18:34:21.887Z,6.10
2023-01-13T18:38:44.174Z,6.10
2023-01-13T18:43:05.949Z,6.10
2023-01-13T18:47:31.289Z,6.10
2023-01-13T18:51:53.130Z,6.00
2023-01-13T18:56:15.689Z,5.90
2023-01-13T19:00:38.455Z,5.80
2023-01-13T19:05:00.535Z,5.70
2023-01-13T19:09:26.997Z,5.70
2023-01-13T19:13:50.397Z,5.70
2023-01-13T19:18:17.087Z,5.70
2023-01-13T19:22:39.291Z,5.80
2023-01-13T19:27:01.674Z,5.80
2023-01-13T19:31:23.983Z,5.70
2023-01-13T19:35:46.472Z,5.70
2023-01-13T19:40:11.110Z,5.80
2023-01-13T19:44:52.313Z,5.80
2023-01-13T19:49:14.814Z,5.90
2023-01-13T19:53:37.054Z,5.90
2023-01-13T19:57:59.276Z,5.90
2023-01-13T20:02:32.294Z,5.90
2023-01-13T20:06:54.115Z,5.90
2023-01-13T20:11:22.296Z,6.00
2023-01-13T20:15:44.700Z,6.00
2023-01-13T20:20:08.277Z,6.10
2023-01-13T20:24:31.013Z,6.10
2023-01-13T20:28:53.342Z,6.10
2023-01-13T20:33:15.834Z,6.20
2023-01-13T20:37:38.603Z,6.30
2023-01-13T20:42:19.357Z,6.30
2023-01-13T20:46:43.506Z,6.20
2023-01-13T20:51:05.820Z,6.10
2023-01-13T20:55:27.906Z,6.10
2023-01-13T20:59:50.333Z,6.00
2023-01-13T21:04:18.072Z,6.00
2023-01-13T21:08:40.432Z,5.90
2023-01-13T21:13:21.116Z,6.00
2023-01-13T21:18:05.679Z,6.10
2023-01-13T21:22:28.141Z,6.10
2023-01-13T21:26:59.393Z,6.20
2023-01-13T21:31:21.458Z,6.20
2023-01-13T21:35:45.128Z,6.10
2023-01-13T21:40:11.025Z,5.80
2023-01-13T21:44:55.124Z,5.70
2023-01-13T21:49:20.368Z,5.80
2023-01-13T21:53:42.613Z,5.90
2023-01-13T21:58:14.822Z,5.90
2023-01-13T22:02:36.952Z,5.90
2023-01-13T22:07:02.217Z,5.90
2023-01-13T22:11:24.219Z,5.80
2023-01-13T22:15:46.929Z,5.70
2023-01-13T22:20:12.136Z,5.70
2023-01-13T22:24:34.276Z,5.70
2023-01-13T22:28:56.619Z,5.70
2023-01-13T22:33:18.519Z,5.70
2023-01-13T22:37:40.915Z,5.70
2023-01-13T22:42:03.557Z,5.90
2023-01-13T22:46:25.738Z,5.90
2023-01-13T22:50:47.893Z,6.00
2023-01-13T22:55:10.320Z,6.00
2023-01-13T22:59:32.227Z,6.00
2023-01-13T23:03:55.129Z,6.10
2023-01-13T23:08:17.092Z,6.10
2023-01-13T23:12:39.351Z,5.90
2023-01-13T23:17:01.469Z,5.80
2023-01-13T23:21:30.783Z,5.70
2023-01-13T23:25:53.899Z,5.70
2023-01-13T23:30:16.417Z,5.80
2023-01-13T23:34:38.258Z,5.70
2023-01-13T23:39:00.437Z,5.60
2023-01-13T23:43:23.320Z,5.60
2023-01-13T23:47:45.663Z,5.40
2023-01-13T23:52:07.497Z,5.40
2023-01-13T23:56:31.744Z,5.50
